createdAt,value
2019-04-01T00:00:35.536Z,38.40
2019-04-01T00:03:07.382Z,41.43
2019-04-01T00:05:37.966Z,37.53
2019-04-01T00:08:08.434Z,42.13
2019-04-01T00:10:39.139Z,42.67
2019-04-01T00:13:09.711Z,44.97
2019-04-01T00:15:40.218Z,44.73
2019-04-01T00:18:10.757Z,41.70
2019-04-01T00:20:41.640Z,48.07
2019-04-01T00:23:12.416Z,43.70
2019-04-01T00:25:42.948Z,48.93
2019-04-01T00:28:13.345Z,46.40
2019-04-01T00:30:44.109Z,46.27
2019-04-01T00:33:14.474Z,43.00
2019-04-01T00:35:45.030Z,46.83
2019-04-01T00:38:15.542Z,46.27
2019-04-01T00:40:46.182Z,49.17
2019-04-01T00:43:34.095Z,49.50
2019-04-01T00:46:05.227Z,49.87
2019-04-01T00:48:35.745Z,47.10
2019-04-01T00:51:06.334Z,46.77
2019-04-01T00:53:36.998Z,48.07
2019-04-01T00:56:07.544Z,51.10
2019-04-01T00:58:38.105Z,50.70
2019-04-01T01:01:08.757Z,51.47
2019-04-01T01:03:40.456Z,52.97
2019-04-01T01:06:11.061Z,49.53
2019-04-01T01:08:41.534Z,47.30
2019-04-01T01:11:12.253Z,50.03
2019-04-01T01:13:42.664Z,51.97
2019-04-01T01:16:13.096Z,48.80
2019-04-01T01:18:43.547Z,51.63
2019-04-01T01:21:14.043Z,53.37
2019-04-01T01:23:44.601Z,53.20
2019-04-01T01:26:15.163Z,55.00
2019-04-01T01:28:45.716Z,55.03
2019-04-01T01:31:16.260Z,54.57
2019-04-01T01:33:46.807Z,49.43
2019-04-01T01:36:17.344Z,52.97
2019-04-01T01:38:48.111Z,53.77
2019-04-01T01:41:18.623Z,53.37
2019-04-01T01:43:49.217Z,53.20
2019-04-01T01:46:19.615Z,51.47
2019-04-01T01:48:50.061Z,52.97
2019-04-01T01:51:20.472Z,52.80
2019-04-01T01:53:50.945Z,52.17
2019-04-01T01:56:21.426Z,56.87
2019-04-01T01:58:51.888Z,52.20
2019-04-01T02:01:22.188Z,55.27
2019-04-01T02:03:52.563Z,53.80
2019-04-01T02:06:22.951Z,56.17
2019-04-01T02:08:53.327Z,51.70
2019-04-01T02:11:23.764Z,52.07
2019-04-01T02:13:54.168Z,50.73
2019-04-01T02:16:24.671Z,55.90
2019-04-01T02:18:55.009Z,52.37
2019-04-01T02:21:25.351Z,50.73
2019-04-01T02:23:55.788Z,54.27
2019-04-01T02:26:26.227Z,53.40
2019-04-01T02:28:56.615Z,54.90
2019-04-01T02:31:27.064Z,53.70
2019-04-01T02:33:57.457Z,55.37
2019-04-01T02:36:27.848Z,57.03
2019-04-01T02:38:58.296Z,54.17
2019-04-01T02:41:28.778Z,57.67
2019-04-01T02:43:59.184Z,54.27
2019-04-01T02:46:29.654Z,57.20
2019-04-01T02:49:00.148Z,56.43
2019-04-01T02:51:30.545Z,55.40
2019-04-01T02:54:00.942Z,58.03
2019-04-01T02:56:31.425Z,52.77
2019-04-01T02:59:01.864Z,56.37
2019-04-01T03:01:32.333Z,59.10
2019-04-01T03:04:02.805Z,55.93
2019-04-01T03:06:33.202Z,60.07
2019-04-01T03:09:05.836Z,59.70
2019-04-01T03:11:36.312Z,53.93
2019-04-01T03:14:06.625Z,56.73
2019-04-01T03:16:37.031Z,58.40
2019-04-01T03:19:07.515Z,56.40
2019-04-01T03:21:37.806Z,57.63
2019-04-01T03:24:08.120Z,57.83
2019-04-01T03:26:38.518Z,61.43
2019-04-01T03:29:08.914Z,57.83
2019-04-01T03:31:39.242Z,53.30
2019-04-01T03:34:09.710Z,57.37
2019-04-01T03:36:40.160Z,58.93
2019-04-01T03:39:10.640Z,57.47
2019-04-01T03:41:41.069Z,58.63
2019-04-01T03:44:11.597Z,58.20
2019-04-01T03:46:42.088Z,57.57
2019-04-01T03:49:12.914Z,55.43
2019-04-01T03:51:43.425Z,59.93
2019-04-01T03:54:13.938Z,55.83
2019-04-01T03:56:44.294Z,62.73
2019-04-01T03:59:14.721Z,56.77
2019-04-01T04:01:45.169Z,57.13
2019-04-01T04:04:15.741Z,61.97
2019-04-01T04:06:46.195Z,68.20
2019-04-01T04:09:16.675Z,64.03
2019-04-01T04:11:47.016Z,61.60
2019-04-01T04:14:17.413Z,62.03
2019-04-01T04:16:47.796Z,59.70
2019-04-01T04:19:18.073Z,62.97
2019-04-01T04:21:48.644Z,61.87
2019-04-01T04:24:19.250Z,61.13
2019-04-01T04:26:49.624Z,59.07
2019-04-01T04:29:20.065Z,58.33
2019-04-01T04:31:50.476Z,62.13
2019-04-01T04:34:20.866Z,63.40
2019-04-01T04:36:51.346Z,62.83
2019-04-01T04:39:21.795Z,63.27
2019-04-01T04:41:52.138Z,59.40
2019-04-01T04:44:22.631Z,61.40
2019-04-01T04:46:53.010Z,62.37
2019-04-01T04:49:23.455Z,62.67
2019-04-01T04:51:53.960Z,59.60
2019-04-01T04:54:24.363Z,56.73
2019-04-01T04:56:54.712Z,64.97
2019-04-01T04:59:25.168Z,57.03
2019-04-01T05:01:55.493Z,63.07
2019-04-01T05:04:25.944Z,58.50
2019-04-01T05:06:56.515Z,63.77
2019-04-01T05:09:26.934Z,61.37
2019-04-01T05:11:57.424Z,61.30
2019-04-01T05:14:27.839Z,61.73
2019-04-01T05:16:58.321Z,65.37
2019-04-01T05:19:28.776Z,61.33
2019-04-01T05:22:00.917Z,62.97
2019-04-01T05:24:32.389Z,67.73
2019-04-01T05:27:05.126Z,63.07
2019-04-01T05:29:36.760Z,60.90
2019-04-01T05:32:07.282Z,62.63
2019-04-01T05:34:40.132Z,64.83
2019-04-01T05:37:10.556Z,57.63
2019-04-01T05:39:41.460Z,58.23
2019-04-01T05:42:11.920Z,61.50
2019-04-01T05:44:42.330Z,61.97
2019-04-01T05:47:12.847Z,61.47
2019-04-01T05:49:43.359Z,65.23
2019-04-01T05:52:13.810Z,62.63
2019-04-01T05:54:45.295Z,61.47
2019-04-01T05:57:16.336Z,58.47
2019-04-01T05:59:47.354Z,56.33
2019-04-01T06:02:17.820Z,58.93
2019-04-01T06:04:48.262Z,55.20
2019-04-01T06:07:19.055Z,58.40
2019-04-01T06:09:49.543Z,55.70
2019-04-01T06:12:19.924Z,54.87
2019-04-01T06:14:50.424Z,53.87
2019-04-01T06:17:20.820Z,53.17
2019-04-01T06:19:51.841Z,52.40
2019-04-01T06:22:22.258Z,49.33
2019-04-01T06:24:53.640Z,48.37
2019-04-01T06:27:24.715Z,52.03
2019-04-01T06:29:59.149Z,49.13
2019-04-01T06:32:28.347Z,52.57
2019-04-01T06:34:58.658Z,49.73
2019-04-01T06:37:29.040Z,45.40
2019-04-01T06:40:00.060Z,49.07
2019-04-01T06:42:30.479Z,50.83
2019-04-01T06:45:00.954Z,51.37
2019-04-01T06:47:31.406Z,46.63
2019-04-01T06:50:01.809Z,50.30
2019-04-01T06:52:32.168Z,47.00
2019-04-01T06:55:02.672Z,45.17
2019-04-01T06:57:33.105Z,46.50
2019-04-01T07:00:03.556Z,44.97
2019-04-01T07:02:34.313Z,44.77
2019-04-01T07:05:05.267Z,41.73
2019-04-01T07:07:35.748Z,46.10
2019-04-01T07:10:06.600Z,43.77
2019-04-01T07:12:37.006Z,46.30
2019-04-01T07:15:07.936Z,42.77
2019-04-01T07:17:38.344Z,45.30
2019-04-01T07:20:09.255Z,43.17
2019-04-01T07:22:39.654Z,42.83
2019-04-01T07:25:10.718Z,39.80
2019-04-01T07:27:41.489Z,41.90
2019-04-01T07:30:13.262Z,41.73
2019-04-01T07:32:43.804Z,39.10
2019-04-01T07:35:14.673Z,42.70
2019-04-01T07:37:44.977Z,38.63
2019-04-01T07:40:15.417Z,37.67
2019-04-01T07:42:46.015Z,38.57
2019-04-01T07:45:16.451Z,35.60
2019-04-01T07:47:46.932Z,41.30
2019-04-01T07:50:17.670Z,37.80
2019-04-01T07:52:48.195Z,36.20
2019-04-01T07:55:18.693Z,37.13
2019-04-01T07:57:49.060Z,36.87
2019-04-01T08:00:19.745Z,36.33
2019-04-01T08:02:50.272Z,37.57
2019-04-01T08:05:20.849Z,34.83
2019-04-01T08:07:51.512Z,37.20
2019-04-01T08:10:21.998Z,35.70
2019-04-01T08:12:52.521Z,41.10
2019-04-01T08:15:22.963Z,33.87
2019-04-01T08:17:53.470Z,40.07
2019-04-01T08:20:24.049Z,38.33
2019-04-01T08:22:54.513Z,36.17
2019-04-01T08:25:24.957Z,37.00
2019-04-01T08:27:55.407Z,36.23
2019-04-01T08:30:25.909Z,35.27
2019-04-01T08:32:56.399Z,35.87
2019-04-01T08:35:26.915Z,35.93
2019-04-01T08:37:57.483Z,37.40
2019-04-01T08:40:28.006Z,36.50
2019-04-01T08:42:58.368Z,39.47
2019-04-01T08:45:28.793Z,34.33
2019-04-01T08:47:59.185Z,37.47
2019-04-01T08:50:29.699Z,36.80
2019-04-01T08:53:00.171Z,36.87
2019-04-01T08:55:30.832Z,35.23
2019-04-01T08:58:01.288Z,36.70
2019-04-01T09:00:31.706Z,35.13
2019-04-01T09:03:02.116Z,34.97
2019-04-01T09:05:32.677Z,35.97
2019-04-01T09:08:03.178Z,35.20
2019-04-01T09:10:33.615Z,36.60
2019-04-01T09:13:04.554Z,39.57
2019-04-01T09:15:35.152Z,35.77
2019-04-01T09:18:05.579Z,35.50
2019-04-01T09:20:36.043Z,35.83
2019-04-01T09:23:06.477Z,36.63
2019-04-01T09:25:36.949Z,34.93
2019-04-01T09:28:07.324Z,35.13
2019-04-01T09:30:38.044Z,33.50
2019-04-01T09:33:08.473Z,35.50
2019-04-01T09:35:40.841Z,36.47
2019-04-01T09:38:11.087Z,35.57
2019-04-01T09:40:41.554Z,35.63
2019-04-01T09:43:14.112Z,35.73
2019-04-01T09:45:44.092Z,35.63
2019-04-01T09:48:14.532Z,34.27
2019-04-01T09:50:44.907Z,35.03
2019-04-01T09:53:15.445Z,34.53
2019-04-01T09:55:45.968Z,35.27
2019-04-01T09:58:16.506Z,38.47
2019-04-01T10:00:53.249Z,36.80
2019-04-01T10:03:22.817Z,36.80
2019-04-01T10:05:53.204Z,34.50
2019-04-01T10:08:23.652Z,34.40
2019-04-01T10:10:54.135Z,34.77
2019-04-01T10:13:24.602Z,35.17
2019-04-01T10:15:55.050Z,33.50
2019-04-01T10:18:25.518Z,32.57
2019-04-01T10:20:55.970Z,33.47
2019-04-01T10:23:26.291Z,34.97
2019-04-01T10:25:56.692Z,33.77
2019-04-01T10:28:27.114Z,34.67
2019-04-01T10:30:57.633Z,34.60
2019-04-01T10:33:28.111Z,34.90
2019-04-01T10:35:58.497Z,32.23
2019-04-01T10:38:28.947Z,32.53
2019-04-01T10:40:59.430Z,32.83
2019-04-01T10:43:29.801Z,34.83
2019-04-01T10:46:00.247Z,33.77
2019-04-01T10:48:30.883Z,34.87
2019-04-01T10:51:01.539Z,34.10
2019-04-01T10:53:32.049Z,37.23
2019-04-01T10:56:02.567Z,33.93
2019-04-01T10:58:32.995Z,32.57
2019-04-01T11:01:03.661Z,32.27
2019-04-01T11:03:34.102Z,33.97
2019-04-01T11:06:04.653Z,35.03
2019-04-01T11:08:35.272Z,32.03
2019-04-01T11:11:05.737Z,33.90
2019-04-01T11:13:36.158Z,33.60
2019-04-01T11:16:06.692Z,33.43
2019-04-01T11:18:37.113Z,32.70
2019-04-01T11:21:07.500Z,34.00
2019-04-01T11:23:38.034Z,32.73
2019-04-01T11:26:08.363Z,29.97
2019-04-01T11:28:38.773Z,32.13
2019-04-01T11:31:09.200Z,31.83
2019-04-01T11:33:39.751Z,29.77
2019-04-01T11:36:10.245Z,32.97
2019-04-01T11:38:40.670Z,32.33
2019-04-01T11:41:11.166Z,31.30
2019-04-01T11:43:41.499Z,31.83
2019-04-01T11:46:12.661Z,32.13
2019-04-01T11:48:43.445Z,32.60
2019-04-01T11:51:13.868Z,30.93
2019-04-01T11:53:44.347Z,32.07
2019-04-01T11:56:14.877Z,31.90
2019-04-01T11:58:45.340Z,31.23
2019-04-01T12:01:15.667Z,30.33
2019-04-01T12:03:46.162Z,29.60
2019-04-01T12:06:16.618Z,30.07
2019-04-01T12:08:47.160Z,29.17
2019-04-01T12:11:17.640Z,28.83
2019-04-01T12:13:48.023Z,29.47
2019-04-01T12:16:18.498Z,28.80
2019-04-01T12:18:48.870Z,29.47
2019-04-01T12:21:19.271Z,28.23
2019-04-01T12:23:49.773Z,29.17
2019-04-01T12:26:20.213Z,28.50
2019-04-01T12:28:50.597Z,32.80
2019-04-01T12:31:21.768Z,27.43
2019-04-01T12:33:52.624Z,28.47
2019-04-01T12:36:23.022Z,29.07
2019-04-01T12:38:53.934Z,27.00
2019-04-01T12:41:24.562Z,26.93
2019-04-01T12:43:54.986Z,27.50
2019-04-01T12:46:25.494Z,29.73
2019-04-01T12:48:55.890Z,31.63
2019-04-01T12:51:26.413Z,26.47
2019-04-01T12:53:56.885Z,27.47
2019-04-01T12:56:27.431Z,29.10
2019-04-01T12:58:57.944Z,28.97
2019-04-01T13:01:28.408Z,27.13
2019-04-01T13:03:58.766Z,27.40
2019-04-01T13:06:29.182Z,28.97
2019-04-01T13:08:59.576Z,29.40
2019-04-01T13:11:30.061Z,27.23
2019-04-01T13:14:00.477Z,26.10
2019-04-01T13:16:30.944Z,28.63
2019-04-01T13:19:01.460Z,28.43
2019-04-01T13:21:34.563Z,28.07
2019-04-01T13:24:04.964Z,27.43
2019-04-01T13:26:35.601Z,26.20
2019-04-01T13:29:06.111Z,27.00
2019-04-01T13:31:36.566Z,28.00
2019-04-01T13:34:07.042Z,27.17
2019-04-01T13:36:37.509Z,24.73
2019-04-01T13:39:08.977Z,23.80
2019-04-01T13:41:42.615Z,24.00
2019-04-01T13:44:11.630Z,28.10
2019-04-01T13:46:42.031Z,26.70
2019-04-01T13:49:12.542Z,25.63
2019-04-01T13:51:43.827Z,27.70
2019-04-01T13:54:14.508Z,26.83
2019-04-01T13:56:45.044Z,25.97
2019-04-01T13:59:17.496Z,25.97
2019-04-01T14:01:47.845Z,23.60
2019-04-01T14:04:18.199Z,25.33
2019-04-01T14:06:48.636Z,24.87
2019-04-01T14:09:20.758Z,26.17
2019-04-01T14:11:51.484Z,24.50
2019-04-01T14:14:21.900Z,25.33
2019-04-01T14:16:52.403Z,24.63
2019-04-01T14:19:22.809Z,22.80
2019-04-01T14:21:53.215Z,22.80
2019-04-01T14:24:23.663Z,23.97
2019-04-01T14:26:56.582Z,28.10
2019-04-01T14:29:26.429Z,24.00
2019-04-01T14:31:56.895Z,23.23
2019-04-01T14:34:27.365Z,24.87
2019-04-01T14:36:57.791Z,22.80
2019-04-01T14:39:28.301Z,24.13
2019-04-01T14:41:58.683Z,23.33
2019-04-01T14:44:29.166Z,23.13
2019-04-01T14:46:59.613Z,24.20
2019-04-01T14:49:30.059Z,23.27
2019-04-01T14:52:00.598Z,24.23
2019-04-01T14:54:31.026Z,20.60
2019-04-01T14:57:01.408Z,21.27
2019-04-01T14:59:31.677Z,21.57
2019-04-01T15:02:03.794Z,23.07
2019-04-01T15:04:34.474Z,20.67
2019-04-01T15:07:04.911Z,21.17
2019-04-01T15:09:35.316Z,23.37
2019-04-01T15:12:05.809Z,22.37
2019-04-01T15:14:36.248Z,21.90
2019-04-01T15:17:06.717Z,23.87
2019-04-01T15:19:37.199Z,22.10
2019-04-01T15:22:07.698Z,24.00
2019-04-01T15:24:38.255Z,22.63
2019-04-01T15:27:08.679Z,23.50
2019-04-01T15:29:39.093Z,23.43
2019-04-01T15:32:09.584Z,25.00
2019-04-01T15:34:40.014Z,23.60
2019-04-01T15:37:10.399Z,23.07
2019-04-01T15:39:40.819Z,23.50
2019-04-01T15:42:11.281Z,21.87
2019-04-01T15:44:41.835Z,20.67
2019-04-01T15:47:12.261Z,20.50
2019-04-01T15:49:42.608Z,22.00
2019-04-01T15:52:13.059Z,21.27
2019-04-01T15:54:43.675Z,21.93
2019-04-01T15:57:15.355Z,21.37
2019-04-01T15:59:45.926Z,21.13
2019-04-01T16:02:16.375Z,20.67
2019-04-01T16:04:46.935Z,33.60
2019-04-01T16:07:17.416Z,20.97
2019-04-01T16:09:47.829Z,21.43
2019-04-01T16:12:18.211Z,20.43
2019-04-01T16:14:48.837Z,22.83
2019-04-01T16:17:19.266Z,20.30
2019-04-01T16:19:49.726Z,22.13
2019-04-01T16:22:20.164Z,21.33
2019-04-01T16:24:50.665Z,22.83
2019-04-01T16:27:21.270Z,19.80
2019-04-01T16:29:51.786Z,19.50
2019-04-01T16:32:22.264Z,19.37
2019-04-01T16:34:52.706Z,20.33
2019-04-01T16:37:23.109Z,20.27
2019-04-01T16:39:54.662Z,22.20
2019-04-01T16:42:25.380Z,19.60
2019-04-01T16:44:55.944Z,19.83
2019-04-01T16:47:26.432Z,19.07
2019-04-01T16:49:56.933Z,24.83
2019-04-01T16:52:27.412Z,20.10
2019-04-01T16:55:01.904Z,21.03
2019-04-01T16:57:32.387Z,21.53
2019-04-01T17:00:02.872Z,20.70
2019-04-01T17:02:33.399Z,24.33
2019-04-01T17:05:04.054Z,21.30
2019-04-01T17:07:34.581Z,20.97
2019-04-01T17:10:05.510Z,19.87
2019-04-01T17:12:36.093Z,22.70
2019-04-01T17:15:07.062Z,19.33
2019-04-01T17:17:37.959Z,24.97
2019-04-01T17:20:08.485Z,20.10
2019-04-01T17:22:39.038Z,19.07
2019-04-01T17:25:09.728Z,22.00
2019-04-01T17:27:40.277Z,19.40
2019-04-01T17:30:13.347Z,19.70
2019-04-01T17:32:43.889Z,23.30
2019-04-01T17:35:14.521Z,22.87
2019-04-01T17:37:45.076Z,19.77
2019-04-01T17:40:17.250Z,20.90
2019-04-01T17:42:47.979Z,22.43
2019-04-01T17:45:49.984Z,20.53
2019-04-01T17:48:20.459Z,18.73
2019-04-01T17:50:50.870Z,19.43
2019-04-01T17:53:21.352Z,20.17
2019-04-01T17:55:52.703Z,17.80
2019-04-01T17:58:23.074Z,18.27
2019-04-01T18:00:56.614Z,23.37
2019-04-01T18:03:27.523Z,21.87
2019-04-01T18:05:58.150Z,20.93
2019-04-01T18:08:28.680Z,24.37
2019-04-01T18:10:59.044Z,21.37
2019-04-01T18:13:29.478Z,18.50
2019-04-01T18:15:59.936Z,19.53
2019-04-01T18:18:33.818Z,19.33
2019-04-01T18:21:03.394Z,21.80
2019-04-01T18:23:34.215Z,21.17
2019-04-01T18:26:04.824Z,19.80
2019-04-01T18:28:35.247Z,20.33
2019-04-01T18:31:08.046Z,21.87
2019-04-01T18:33:39.828Z,21.23
2019-04-01T18:36:10.265Z,22.53
2019-04-01T18:38:41.195Z,22.97
2019-04-01T18:41:11.600Z,18.63
2019-04-01T18:43:42.204Z,20.73
2019-04-01T18:46:13.042Z,21.27
2019-04-01T18:48:43.601Z,21.03
2019-04-01T18:51:14.183Z,19.90
2019-04-01T18:53:44.631Z,21.27
2019-04-01T18:56:15.150Z,19.57
2019-04-01T18:58:45.754Z,21.33
2019-04-01T19:01:16.365Z,21.73
2019-04-01T19:03:46.960Z,17.77
2019-04-01T19:06:17.490Z,19.63
2019-04-01T19:08:47.930Z,20.23
2019-04-01T19:11:18.392Z,21.57
2019-04-01T19:13:48.958Z,19.00
2019-04-01T19:16:22.855Z,21.70
2019-04-01T19:18:51.628Z,19.40
2019-04-01T19:21:22.154Z,17.83
2019-04-01T19:23:52.651Z,17.93
2019-04-01T19:26:23.423Z,19.67
2019-04-01T19:28:57.991Z,19.93
2019-04-01T19:31:27.009Z,19.63
2019-04-01T19:33:57.438Z,21.10
2019-04-01T19:36:27.989Z,18.00
2019-04-01T19:38:58.387Z,20.37
2019-04-01T19:41:29.042Z,17.57
2019-04-01T19:43:59.583Z,16.63
2019-04-01T19:46:30.117Z,19.67
2019-04-01T19:49:04.752Z,17.53
2019-04-01T19:51:35.842Z,16.93
2019-04-01T19:54:05.101Z,16.77
2019-04-01T19:56:35.638Z,18.70
2019-04-01T19:59:06.173Z,18.20
2019-04-01T20:01:36.753Z,18.80
2019-04-01T20:04:07.306Z,16.33
2019-04-01T20:06:40.641Z,15.43
2019-04-01T20:09:10.285Z,17.00
2019-04-01T20:11:40.762Z,20.27
2019-04-01T20:14:11.641Z,17.70
2019-04-01T20:16:42.215Z,18.23
2019-04-01T20:19:12.652Z,22.40
2019-04-01T20:21:43.062Z,17.27
2019-04-01T20:24:13.514Z,17.73
2019-04-01T20:26:47.008Z,20.14
2019-04-01T20:29:17.531Z,17.97
2019-04-01T20:31:48.027Z,17.23
2019-04-01T20:34:19.880Z,17.17
2019-04-01T20:36:50.881Z,17.07
2019-04-01T20:39:22.287Z,16.53
2019-04-01T20:41:52.874Z,16.07
2019-04-01T20:44:23.297Z,15.77
2019-04-01T20:46:53.734Z,18.63
2019-04-01T20:49:24.210Z,17.33
2019-04-01T20:51:55.346Z,19.70
2019-04-01T20:54:25.667Z,18.00
2019-04-01T20:56:56.252Z,21.37
2019-04-01T20:59:26.658Z,18.77
2019-04-01T21:01:57.227Z,21.03
2019-04-01T21:04:27.691Z,18.63
2019-04-01T21:06:58.136Z,20.30
2019-04-01T21:09:28.572Z,17.60
2019-04-01T21:11:59.058Z,18.20
2019-04-01T21:14:29.562Z,20.10
2019-04-01T21:17:00.534Z,18.47
2019-04-01T21:19:31.148Z,20.33
2019-04-01T21:22:01.576Z,17.13
2019-04-01T21:24:32.002Z,19.80
2019-04-01T21:27:02.319Z,19.17
2019-04-01T21:29:32.860Z,18.30
2019-04-01T21:32:03.326Z,18.63
2019-04-01T21:34:33.732Z,16.40
2019-04-01T21:37:06.124Z,17.67
2019-04-01T21:39:37.805Z,18.63
2019-04-01T21:42:08.593Z,16.60
2019-04-01T21:44:39.083Z,20.03
2019-04-01T21:47:09.584Z,17.87
2019-04-01T21:49:40.036Z,19.57
2019-04-01T21:52:10.407Z,17.83
2019-04-01T21:54:40.875Z,17.97
2019-04-01T21:57:11.346Z,19.30
2019-04-01T21:59:41.892Z,17.97
2019-04-01T22:02:12.400Z,16.07
2019-04-01T22:04:42.845Z,21.73
2019-04-01T22:07:13.319Z,19.40
2019-04-01T22:09:43.760Z,19.63
2019-04-01T22:12:14.381Z,19.53
2019-04-01T22:14:44.942Z,17.80
2019-04-01T22:17:16.159Z,16.87
2019-04-01T22:19:47.553Z,20.60
2019-04-01T22:22:18.242Z,17.43
2019-04-01T22:24:48.890Z,16.07
2019-04-01T22:27:19.559Z,19.87
2019-04-01T22:29:49.948Z,17.90
2019-04-01T22:32:20.514Z,18.87
2019-04-01T22:34:51.050Z,18.23
2019-04-01T22:37:27.218Z,19.03
2019-04-01T22:39:53.924Z,15.83
2019-04-01T22:42:24.538Z,17.93
2019-04-01T22:44:55.112Z,17.20
2019-04-01T22:47:25.751Z,21.57
2019-04-01T22:49:56.463Z,17.87
2019-04-01T22:52:26.789Z,20.63
2019-04-01T22:54:58.255Z,16.17
2019-04-01T22:57:29.733Z,20.87
2019-04-01T23:00:00.160Z,17.30
2019-04-01T23:02:30.656Z,17.80
2019-04-01T23:05:01.126Z,16.57
2019-04-01T23:07:33.027Z,20.30
2019-04-01T23:10:04.048Z,18.43
2019-04-01T23:12:34.573Z,20.53
2019-04-01T23:15:05.798Z,19.27
2019-04-01T23:17:38.274Z,21.77
2019-04-01T23:20:09.642Z,20.53
2019-04-01T23:22:40.219Z,19.80
2019-04-01T23:25:10.734Z,18.87
2019-04-01T23:27:41.363Z,21.17
2019-04-01T23:30:13.509Z,20.03
2019-04-01T23:32:45.288Z,20.67
2019-04-01T23:35:15.941Z,18.37
2019-04-01T23:37:46.542Z,18.73
2019-04-01T23:40:17.325Z,17.57
2019-04-01T23:42:47.830Z,19.53
2019-04-01T23:45:18.356Z,20.83
2019-04-01T23:47:48.926Z,18.00
2019-04-01T23:50:19.670Z,22.87
2019-04-01T23:52:50.234Z,18.37
2019-04-01T23:55:20.753Z,19.17
2019-04-01T23:57:51.257Z,21.23
